createdAt,value
2023-08-29T00:00:16.282Z,75.57
2023-08-29T00:02:42.414Z,75.68
2023-08-29T00:05:04.613Z,75.83
2023-08-29T00:07:26.322Z,75.64
2023-08-29T00:09:48.056Z,75.82
2023-08-29T00:12:09.725Z,75.71
2023-08-29T00:14:31.424Z,75.83
2023-08-29T00:16:53.136Z,75.60
2023-08-29T00:19:16.591Z,75.62
2023-08-29T00:21:38.393Z,75.57
2023-08-29T00:24:00.063Z,75.50
2023-08-29T00:26:21.731Z,75.93
2023-08-29T00:28:44.277Z,75.64
2023-08-29T00:31:06.264Z,75.54
2023-08-29T00:33:27.975Z,75.61
2023-08-29T00:35:49.641Z,75.39
2023-08-29T00:38:12.732Z,75.54
2023-08-29T00:40:34.628Z,75.46
2023-08-29T00:42:56.262Z,75.64
2023-08-29T00:45:18.036Z,75.66
2023-08-29T00:47:41.196Z,75.75
2023-08-29T00:50:03.137Z,75.72
2023-08-29T00:52:24.830Z,75.73
2023-08-29T00:54:47.412Z,75.76
2023-08-29T00:57:09.925Z,75.69
2023-08-29T00:59:32.314Z,75.68
2023-08-29T01:01:54.569Z,75.64
2023-08-29T01:04:16.671Z,75.73
2023-08-29T01:06:39.305Z,75.86
2023-08-29T01:09:02.422Z,75.85
2023-08-29T01:11:35.412Z,75.92
2023-08-29T01:14:24.032Z,75.90
2023-08-29T01:17:04.797Z,75.71
2023-08-29T01:19:27.823Z,75.77
2023-08-29T01:22:28.212Z,75.92
2023-08-29T01:25:01.573Z,75.87
2023-08-29T01:27:23.951Z,75.68
2023-08-29T01:29:47.513Z,75.57
2023-08-29T01:32:09.730Z,75.76
2023-08-29T01:34:32.849Z,75.79
2023-08-29T01:36:56.447Z,75.72
2023-08-29T01:39:18.117Z,75.67
2023-08-29T01:41:39.777Z,75.78
2023-08-29T01:44:06.946Z,75.77
2023-08-29T01:46:30.099Z,75.58
2023-08-29T01:48:52.002Z,75.68
2023-08-29T01:51:14.211Z,75.88
2023-08-29T01:53:36.029Z,75.87
2023-08-29T01:56:00.869Z,75.73
2023-08-29T01:58:23.304Z,75.88
2023-08-29T02:00:45.659Z,75.93
2023-08-29T02:03:07.453Z,75.87
2023-08-29T02:05:29.178Z,75.97
2023-08-29T02:07:51.537Z,75.97
2023-08-29T02:10:13.187Z,75.95
2023-08-29T02:12:34.914Z,75.93
2023-08-29T02:14:56.609Z,76.09
2023-08-29T02:17:18.470Z,75.84
2023-08-29T02:19:40.192Z,75.80
2023-08-29T02:22:01.871Z,75.78
2023-08-29T02:24:25.646Z,75.78
2023-08-29T02:26:47.354Z,75.76
2023-08-29T02:29:11.781Z,75.75
2023-08-29T02:31:33.443Z,75.95
2023-08-29T02:33:55.243Z,75.95
2023-08-29T02:36:16.890Z,75.79
2023-08-29T02:38:39.952Z,75.84
2023-08-29T02:41:02.423Z,75.89
2023-08-29T02:43:24.112Z,75.99
2023-08-29T02:45:45.829Z,75.90
2023-08-29T02:48:07.852Z,75.75
2023-08-29T02:50:29.761Z,75.77
2023-08-29T02:52:51.484Z,75.78
2023-08-29T02:55:13.195Z,75.95
2023-08-29T02:57:34.869Z,76.06
2023-08-29T02:59:56.763Z,75.91
2023-08-29T03:02:18.438Z,76.20
2023-08-29T03:04:40.103Z,76.26
2023-08-29T03:07:01.748Z,76.09
2023-08-29T03:09:23.658Z,76.34
2023-08-29T03:11:45.528Z,76.56
2023-08-29T03:14:07.620Z,76.61
2023-08-29T03:16:29.351Z,76.43
2023-08-29T03:18:51.438Z,76.67
2023-08-29T03:21:13.194Z,76.65
2023-08-29T03:23:36.351Z,76.57
2023-08-29T03:26:11.257Z,76.71
2023-08-29T03:28:34.993Z,76.83
2023-08-29T03:30:56.808Z,76.83
2023-08-29T03:33:18.454Z,76.64
2023-08-29T03:35:41.145Z,76.68
2023-08-29T03:38:03.612Z,77.03
2023-08-29T03:40:25.493Z,76.98
2023-08-29T03:42:48.985Z,77.06
2023-08-29T03:45:11.100Z,77.20
2023-08-29T03:47:34.873Z,76.94
2023-08-29T03:49:56.862Z,76.85
2023-08-29T03:52:28.551Z,77.21
2023-08-29T03:54:54.327Z,76.89
2023-08-29T03:57:16.018Z,77.00
2023-08-29T03:59:38.420Z,77.44
2023-08-29T04:02:00.142Z,77.39
2023-08-29T04:04:23.775Z,77.70
2023-08-29T04:06:45.704Z,77.70
2023-08-29T04:09:09.546Z,77.90
2023-08-29T04:11:31.456Z,77.81
2023-08-29T04:13:53.218Z,77.71
2023-08-29T04:16:15.409Z,77.92
2023-08-29T04:18:37.182Z,78.08
2023-08-29T04:20:59.626Z,78.01
2023-08-29T04:23:21.344Z,78.09
2023-08-29T04:25:43.070Z,78.28
2023-08-29T04:28:05.847Z,78.44
2023-08-29T04:30:27.901Z,78.25
2023-08-29T04:32:49.671Z,78.34
2023-08-29T04:35:11.825Z,78.33
2023-08-29T04:37:36.613Z,78.42
2023-08-29T04:39:58.328Z,78.21
2023-08-29T04:42:20.114Z,78.60
2023-08-29T04:44:43.764Z,78.42
2023-08-29T04:47:06.600Z,78.67
2023-08-29T04:49:29.052Z,78.68
2023-08-29T04:51:50.729Z,78.67
2023-08-29T04:54:13.089Z,78.62
2023-08-29T04:56:34.800Z,78.79
2023-08-29T04:58:56.439Z,79.00
2023-08-29T05:01:18.250Z,79.07
2023-08-29T05:03:40.638Z,79.05
2023-08-29T05:06:02.612Z,78.95
2023-08-29T05:08:25.922Z,78.92
2023-08-29T05:10:48.090Z,79.11
2023-08-29T05:13:11.375Z,79.08
2023-08-29T05:15:34.881Z,79.06
2023-08-29T05:17:56.755Z,79.05
2023-08-29T05:20:18.735Z,79.05
2023-08-29T05:22:40.504Z,78.93
2023-08-29T05:25:02.564Z,78.85
2023-08-29T05:27:24.170Z,79.06
2023-08-29T05:29:45.840Z,79.17
2023-08-29T05:32:08.227Z,79.29
2023-08-29T05:34:29.921Z,79.05
2023-08-29T05:36:54.502Z,79.33
2023-08-29T05:39:16.292Z,78.99
2023-08-29T05:41:38.045Z,78.90
2023-08-29T05:43:59.794Z,79.07
2023-08-29T05:46:21.645Z,79.07
2023-08-29T05:48:43.392Z,79.04
2023-08-29T05:51:05.091Z,78.84
2023-08-29T05:53:26.849Z,78.89
2023-08-29T05:55:48.589Z,79.02
2023-08-29T05:58:10.244Z,78.77
2023-08-29T06:00:31.983Z,79.17
2023-08-29T06:02:53.899Z,78.83
2023-08-29T06:05:15.771Z,78.88
2023-08-29T06:07:40.097Z,78.94
2023-08-29T06:10:02.155Z,78.63
2023-08-29T06:12:23.940Z,78.59
2023-08-29T06:14:45.612Z,78.79
2023-08-29T06:17:07.347Z,78.98
2023-08-29T06:19:29.133Z,78.87
2023-08-29T06:21:50.838Z,79.13
2023-08-29T06:24:12.684Z,79.12
2023-08-29T06:26:34.469Z,79.08
2023-08-29T06:28:56.352Z,79.15
2023-08-29T06:31:18.131Z,79.21
2023-08-29T06:33:41.162Z,79.46
2023-08-29T06:36:02.885Z,79.20
2023-08-29T06:38:24.677Z,79.30
2023-08-29T06:40:46.417Z,79.21
2023-08-29T06:43:08.242Z,79.59
2023-08-29T06:45:29.968Z,79.52
2023-08-29T06:47:52.674Z,79.68
2023-08-29T06:50:14.574Z,79.78
2023-08-29T06:52:36.355Z,79.63
2023-08-29T06:54:58.141Z,79.85
2023-08-29T06:57:19.849Z,79.74
2023-08-29T06:59:41.533Z,79.85
2023-08-29T07:02:03.390Z,79.18
2023-08-29T07:04:25.108Z,79.68
2023-08-29T07:07:54.209Z,79.13
2023-08-29T07:10:16.092Z,79.01
2023-08-29T07:12:38.696Z,78.98
2023-08-29T07:15:02.072Z,78.68
2023-08-29T07:17:23.842Z,78.89
2023-08-29T07:19:45.727Z,78.33
2023-08-29T07:22:21.780Z,78.28
2023-08-29T07:24:45.960Z,77.90
2023-08-29T07:27:07.663Z,77.83
2023-08-29T07:29:29.343Z,77.52
2023-08-29T07:31:50.948Z,76.82
2023-08-29T07:34:16.675Z,76.54
2023-08-29T07:36:38.851Z,76.31
2023-08-29T07:39:00.696Z,76.35
2023-08-29T07:41:22.571Z,76.13
2023-08-29T07:43:44.372Z,76.21
2023-08-29T07:46:06.221Z,75.91
2023-08-29T07:48:28.439Z,75.53
2023-08-29T07:50:50.302Z,75.04
2023-08-29T07:53:12.269Z,74.81
2023-08-29T07:55:34.036Z,74.59
2023-08-29T07:57:57.253Z,74.22
2023-08-29T08:00:19.751Z,74.00
2023-08-29T08:02:42.272Z,73.62
2023-08-29T08:05:04.760Z,73.52
2023-08-29T08:07:26.500Z,73.29
2023-08-29T08:09:48.219Z,72.98
2023-08-29T08:12:10.099Z,72.68
2023-08-29T08:14:31.955Z,72.55
2023-08-29T08:16:53.798Z,71.74
2023-08-29T08:19:15.724Z,69.87
2023-08-29T08:21:37.575Z,69.45
2023-08-29T08:23:59.348Z,69.52
2023-08-29T08:26:21.200Z,69.07
2023-08-29T08:28:44.828Z,69.62
2023-08-29T08:31:08.110Z,69.49
2023-08-29T08:33:30.144Z,69.62
2023-08-29T08:35:57.475Z,69.71
2023-08-29T08:38:19.621Z,69.09
2023-08-29T08:40:42.546Z,68.52
2023-08-29T08:43:06.580Z,68.49
2023-08-29T08:45:28.583Z,68.73
2023-08-29T08:47:51.595Z,68.32
2023-08-29T08:50:13.414Z,67.55
2023-08-29T08:52:36.029Z,66.54
2023-08-29T08:54:57.676Z,66.37
2023-08-29T08:57:19.832Z,66.95
2023-08-29T08:59:43.260Z,67.54
2023-08-29T09:02:07.097Z,67.84
2023-08-29T09:04:29.110Z,67.74
2023-08-29T09:06:51.077Z,67.85
2023-08-29T09:09:24.281Z,67.08
2023-08-29T09:11:56.896Z,66.44
2023-08-29T09:14:18.845Z,66.93
2023-08-29T09:16:40.801Z,66.68
2023-08-29T09:19:02.968Z,66.04
2023-08-29T09:21:25.849Z,65.98
2023-08-29T09:23:47.612Z,65.72
2023-08-29T09:26:13.521Z,65.40
2023-08-29T09:28:35.235Z,65.32
2023-08-29T09:31:09.445Z,65.21
2023-08-29T09:33:31.927Z,65.63
2023-08-29T09:35:53.757Z,65.86
2023-08-29T09:38:19.344Z,65.70
2023-08-29T09:40:50.302Z,65.00
2023-08-29T09:43:16.853Z,64.96
2023-08-29T09:45:39.458Z,65.25
2023-08-29T09:48:08.149Z,64.35
2023-08-29T09:50:31.940Z,64.03
2023-08-29T09:52:54.627Z,63.87
2023-08-29T09:55:20.577Z,63.56
2023-08-29T09:57:42.804Z,62.76
2023-08-29T10:00:09.825Z,62.19
2023-08-29T10:02:33.144Z,60.95
2023-08-29T10:05:10.082Z,61.17
2023-08-29T10:07:42.119Z,60.79
2023-08-29T10:10:07.394Z,60.58
2023-08-29T10:12:29.728Z,59.74
2023-08-29T10:14:54.561Z,59.11
2023-08-29T10:17:29.839Z,59.55
2023-08-29T10:19:56.179Z,59.65
2023-08-29T10:22:19.250Z,59.31
2023-08-29T10:24:43.480Z,58.49
2023-08-29T10:27:05.675Z,57.07
2023-08-29T10:29:27.542Z,57.24
2023-08-29T10:31:50.136Z,57.16
2023-08-29T10:34:15.013Z,57.08
2023-08-29T10:36:40.306Z,57.23
2023-08-29T10:39:02.493Z,57.80
2023-08-29T10:41:24.485Z,57.62
2023-08-29T10:43:46.331Z,57.71
2023-08-29T10:46:11.087Z,57.89
2023-08-29T10:48:47.867Z,58.38
2023-08-29T10:51:12.988Z,58.53
2023-08-29T10:53:40.501Z,58.91
2023-08-29T10:56:05.123Z,58.69
2023-08-29T10:58:41.946Z,59.10
2023-08-29T11:01:06.137Z,59.49
2023-08-29T11:03:52.719Z,58.85
2023-08-29T11:06:17.974Z,58.89
2023-08-29T11:08:39.877Z,56.90
2023-08-29T11:11:10.860Z,55.61
2023-08-29T11:13:32.554Z,56.16
2023-08-29T11:15:54.274Z,56.60
2023-08-29T11:18:25.433Z,56.80
2023-08-29T11:20:47.693Z,56.80
2023-08-29T11:23:12.706Z,56.14
2023-08-29T11:25:38.806Z,55.94
2023-08-29T11:28:01.280Z,55.25
2023-08-29T11:30:31.506Z,55.51
2023-08-29T11:33:05.364Z,56.15
2023-08-29T11:35:30.189Z,55.97
2023-08-29T11:37:51.962Z,55.98
2023-08-29T11:40:16.767Z,55.32
2023-08-29T11:43:26.668Z,54.67
2023-08-29T11:45:46.981Z,55.04
2023-08-29T11:48:11.198Z,55.71
2023-08-29T11:50:33.331Z,55.93
2023-08-29T11:52:55.163Z,55.65
2023-08-29T11:55:17.442Z,54.63
2023-08-29T11:57:46.337Z,53.23
2023-08-29T12:00:09.276Z,53.29
2023-08-29T12:02:32.103Z,53.26
2023-08-29T12:04:57.269Z,53.22
2023-08-29T12:07:19.737Z,52.03
2023-08-29T12:09:44.144Z,52.16
2023-08-29T12:12:09.597Z,52.61
2023-08-29T12:14:31.454Z,52.01
2023-08-29T12:16:55.072Z,50.15
2023-08-29T12:19:18.136Z,50.34
2023-08-29T12:21:40.027Z,50.34
2023-08-29T12:24:12.729Z,49.75
2023-08-29T12:26:34.597Z,49.65
2023-08-29T12:28:56.293Z,49.62
2023-08-29T12:31:18.300Z,48.93
2023-08-29T12:33:40.061Z,48.74
2023-08-29T12:36:04.415Z,49.28
2023-08-29T12:38:27.798Z,49.77
2023-08-29T12:40:50.099Z,48.33
2023-08-29T12:43:13.929Z,47.77
2023-08-29T12:45:48.496Z,48.88
2023-08-29T12:48:15.640Z,48.26
2023-08-29T12:50:37.519Z,48.98
2023-08-29T12:52:59.417Z,49.83
2023-08-29T12:55:21.448Z,50.04
2023-08-29T12:57:44.296Z,50.02
2023-08-29T13:00:08.908Z,50.39
2023-08-29T13:02:30.886Z,50.15
2023-08-29T13:04:53.020Z,49.40
2023-08-29T13:07:14.837Z,49.83
2023-08-29T13:09:40.064Z,49.39
2023-08-29T13:12:02.103Z,49.97
2023-08-29T13:14:26.760Z,49.80
2023-08-29T13:16:50.654Z,50.00
2023-08-29T13:19:12.802Z,50.10
2023-08-29T13:21:35.508Z,50.33
2023-08-29T13:23:57.424Z,51.02
2023-08-29T13:26:20.845Z,51.01
2023-08-29T13:28:43.128Z,50.78
2023-08-29T13:31:06.343Z,50.89
2023-08-29T13:33:28.223Z,51.18
2023-08-29T13:35:50.603Z,51.12
2023-08-29T13:38:12.910Z,51.56
2023-08-29T13:40:36.069Z,51.32
2023-08-29T13:42:58.281Z,51.13
2023-08-29T13:45:20.370Z,50.93
2023-08-29T13:47:42.610Z,51.02
2023-08-29T13:50:05.694Z,50.50
2023-08-29T13:52:27.684Z,50.24
2023-08-29T13:54:49.515Z,49.33
2023-08-29T13:57:11.277Z,48.81
2023-08-29T13:59:33.124Z,48.84
2023-08-29T14:01:54.881Z,48.46
2023-08-29T14:04:16.677Z,48.01
2023-08-29T14:06:38.442Z,46.86
2023-08-29T14:09:00.184Z,46.77
2023-08-29T14:11:22.110Z,45.98
2023-08-29T14:13:44.181Z,45.38
2023-08-29T14:16:06.088Z,45.35
2023-08-29T14:18:28.208Z,45.13
2023-08-29T14:20:50.868Z,44.23
2023-08-29T14:23:12.579Z,43.91
2023-08-29T14:25:39.844Z,43.96
2023-08-29T14:28:02.796Z,44.55
2023-08-29T14:30:24.883Z,44.28
2023-08-29T14:32:46.695Z,43.35
2023-08-29T14:35:09.231Z,43.67
2023-08-29T14:37:31.176Z,44.46
2023-08-29T14:39:53.047Z,45.37
2023-08-29T14:42:14.957Z,45.68
2023-08-29T14:44:36.953Z,46.27
2023-08-29T14:46:58.820Z,46.22
2023-08-29T14:49:20.723Z,46.98
2023-08-29T14:51:42.620Z,47.18
2023-08-29T14:54:04.728Z,47.51
2023-08-29T14:56:26.944Z,47.54
2023-08-29T14:58:48.762Z,47.44
2023-08-29T15:01:11.081Z,46.53
2023-08-29T15:03:33.094Z,46.07
2023-08-29T15:05:57.459Z,45.74
2023-08-29T15:08:19.365Z,46.11
2023-08-29T15:10:41.133Z,46.75
2023-08-29T15:13:04.092Z,47.17
2023-08-29T15:15:26.198Z,47.35
2023-08-29T15:17:48.015Z,47.42
2023-08-29T15:20:11.143Z,47.86
2023-08-29T15:22:33.146Z,48.31
2023-08-29T15:24:55.008Z,48.56
2023-08-29T15:27:16.821Z,48.90
2023-08-29T15:29:38.663Z,48.73
2023-08-29T15:32:00.939Z,48.80
2023-08-29T15:34:23.070Z,49.42
2023-08-29T15:36:44.929Z,49.76
2023-08-29T15:39:06.748Z,49.77
2023-08-29T15:41:28.450Z,50.49
2023-08-29T15:43:50.373Z,50.81
2023-08-29T15:46:12.300Z,51.14
2023-08-29T15:48:35.163Z,51.78
2023-08-29T15:50:56.989Z,52.30
2023-08-29T15:53:18.930Z,52.92
2023-08-29T15:55:42.331Z,53.44
2023-08-29T15:58:07.811Z,53.46
2023-08-29T16:00:30.914Z,53.78
2023-08-29T16:02:55.022Z,54.31
2023-08-29T16:05:17.120Z,54.17
2023-08-29T16:07:39.253Z,54.54
2023-08-29T16:10:01.776Z,54.62
2023-08-29T16:12:23.481Z,54.71
2023-08-29T16:14:46.072Z,54.88
2023-08-29T16:17:07.942Z,55.23
2023-08-29T16:19:29.736Z,55.27
2023-08-29T16:21:51.504Z,55.51
2023-08-29T16:24:13.259Z,55.46
2023-08-29T16:26:35.087Z,55.79
2023-08-29T16:28:57.181Z,55.77
2023-08-29T16:31:19.008Z,55.66
2023-08-29T16:33:40.909Z,55.65
2023-08-29T16:36:04.675Z,55.93
2023-08-29T16:38:26.493Z,56.02
2023-08-29T16:40:48.494Z,56.11
2023-08-29T16:43:10.284Z,55.82
2023-08-29T16:45:35.711Z,55.45
2023-08-29T16:47:57.599Z,55.38
2023-08-29T16:50:19.664Z,55.62
2023-08-29T16:52:41.666Z,55.56
2023-08-29T16:55:04.199Z,55.56
2023-08-29T16:57:26.200Z,55.58
2023-08-29T17:00:03.717Z,55.61
2023-08-29T17:02:26.621Z,55.84
2023-08-29T17:04:48.551Z,55.97
2023-08-29T17:07:11.439Z,55.88
2023-08-29T17:09:33.226Z,55.97
2023-08-29T17:11:54.965Z,56.27
2023-08-29T17:14:16.761Z,55.96
2023-08-29T17:16:38.629Z,56.15
2023-08-29T17:19:00.492Z,56.20
2023-08-29T17:21:22.412Z,56.16
2023-08-29T17:23:44.152Z,56.18
2023-08-29T17:26:06.355Z,56.63
2023-08-29T17:28:28.096Z,56.52
2023-08-29T17:30:50.276Z,56.54
2023-08-29T17:33:11.992Z,56.85
2023-08-29T17:35:33.712Z,57.23
2023-08-29T17:37:55.321Z,57.71
2023-08-29T17:40:17.327Z,57.90
2023-08-29T17:42:43.746Z,58.05
2023-08-29T17:45:10.830Z,58.31
2023-08-29T17:47:35.744Z,58.38
2023-08-29T17:49:57.612Z,58.67
2023-08-29T17:52:19.346Z,58.53
2023-08-29T17:54:41.049Z,58.79
2023-08-29T17:57:03.115Z,58.94
2023-08-29T17:59:24.915Z,59.16
2023-08-29T18:01:46.738Z,59.20
2023-08-29T18:04:09.486Z,59.45
2023-08-29T18:06:31.339Z,59.51
2023-08-29T18:08:55.073Z,59.75
2023-08-29T18:11:18.256Z,60.00
2023-08-29T18:13:40.114Z,60.22
2023-08-29T18:16:06.159Z,60.51
2023-08-29T18:18:30.046Z,60.82
2023-08-29T18:20:59.385Z,60.86
2023-08-29T18:23:21.784Z,60.96
2023-08-29T18:25:43.467Z,61.28
2023-08-29T18:28:06.201Z,61.16
2023-08-29T18:30:28.141Z,61.61
2023-08-29T18:32:50.195Z,61.51
2023-08-29T18:35:12.079Z,61.76
2023-08-29T18:37:33.821Z,61.67
2023-08-29T18:39:57.374Z,62.03
2023-08-29T18:42:19.045Z,62.09
2023-08-29T18:44:42.081Z,62.38
2023-08-29T18:47:05.264Z,62.17
2023-08-29T18:49:26.904Z,62.04
2023-08-29T18:51:48.596Z,62.47
2023-08-29T18:54:10.297Z,62.21
2023-08-29T18:56:31.944Z,62.32
2023-08-29T18:58:53.638Z,62.17
2023-08-29T19:01:15.388Z,62.21
2023-08-29T19:03:38.404Z,62.14
2023-08-29T19:06:00.340Z,62.27
2023-08-29T19:08:22.889Z,62.25
2023-08-29T19:10:46.631Z,62.20
2023-08-29T19:13:08.331Z,62.48
2023-08-29T19:15:30.422Z,62.57
2023-08-29T19:17:52.116Z,62.50
2023-08-29T19:20:13.832Z,62.29
2023-08-29T19:22:35.495Z,62.46
2023-08-29T19:24:57.344Z,62.42
2023-08-29T19:27:23.754Z,62.25
2023-08-29T19:29:49.090Z,62.62
2023-08-29T19:32:11.034Z,62.51
2023-08-29T19:34:32.802Z,62.88
2023-08-29T19:36:54.462Z,62.68
2023-08-29T19:39:17.531Z,62.41
2023-08-29T19:41:39.440Z,62.64
2023-08-29T19:44:01.211Z,62.60
2023-08-29T19:46:22.901Z,62.53
2023-08-29T19:48:44.758Z,62.63
2023-08-29T19:51:06.922Z,62.68
2023-08-29T19:53:28.857Z,62.72
2023-08-29T19:55:54.776Z,62.78
2023-08-29T19:58:17.033Z,62.90
2023-08-29T20:00:39.146Z,62.98
2023-08-29T20:03:02.417Z,63.21
2023-08-29T20:05:25.100Z,63.19
2023-08-29T20:07:47.233Z,63.07
2023-08-29T20:10:09.625Z,63.03
2023-08-29T20:12:31.345Z,63.20
2023-08-29T20:14:53.131Z,63.23
2023-08-29T20:17:14.896Z,63.21
2023-08-29T20:19:37.396Z,63.21
2023-08-29T20:21:59.256Z,63.17
2023-08-29T20:24:24.367Z,63.45
2023-08-29T20:26:46.368Z,63.41
2023-08-29T20:29:09.092Z,63.44
2023-08-29T20:31:32.175Z,63.60
2023-08-29T20:33:54.309Z,63.69
2023-08-29T20:36:16.907Z,63.75
2023-08-29T20:38:38.689Z,63.81
2023-08-29T20:41:00.519Z,64.02
2023-08-29T20:43:22.298Z,63.99
2023-08-29T20:45:44.039Z,63.87
2023-08-29T20:48:06.438Z,64.07
2023-08-29T20:50:28.566Z,64.12
2023-08-29T20:52:50.318Z,64.25
2023-08-29T20:55:12.665Z,64.17
2023-08-29T20:57:34.498Z,64.34
2023-08-29T20:59:56.475Z,64.39
2023-08-29T21:02:18.236Z,64.50
2023-08-29T21:04:40.031Z,64.56
2023-08-29T21:07:02.030Z,64.63
2023-08-29T21:09:24.654Z,64.85
2023-08-29T21:11:48.813Z,64.86
2023-08-29T21:14:11.861Z,65.79
2023-08-29T21:16:33.787Z,65.76
2023-08-29T21:18:55.660Z,66.04
2023-08-29T21:21:19.644Z,66.13
2023-08-29T21:23:42.012Z,66.06
2023-08-29T21:26:05.124Z,66.49
2023-08-29T21:28:28.533Z,66.64
2023-08-29T21:30:52.845Z,66.75
2023-08-29T21:33:14.892Z,67.12
2023-08-29T21:35:47.985Z,67.09
2023-08-29T21:38:12.199Z,67.18
2023-08-29T21:40:38.199Z,67.26
2023-08-29T21:42:59.833Z,67.59
2023-08-29T21:45:22.353Z,67.71
2023-08-29T21:47:45.690Z,67.83
2023-08-29T21:50:08.027Z,67.78
2023-08-29T21:52:29.745Z,67.90
2023-08-29T21:54:51.583Z,68.09
2023-08-29T21:57:13.342Z,68.39
2023-08-29T21:59:35.159Z,68.46
2023-08-29T22:01:56.878Z,68.74
2023-08-29T22:04:18.619Z,68.87
2023-08-29T22:06:40.297Z,68.93
2023-08-29T22:09:02.003Z,68.97
2023-08-29T22:11:24.318Z,69.30
2023-08-29T22:13:46.236Z,69.44
2023-08-29T22:16:08.416Z,69.60
2023-08-29T22:18:30.459Z,69.73
2023-08-29T22:20:52.194Z,69.57
2023-08-29T22:23:14.137Z,69.56
2023-08-29T22:25:36.500Z,69.52
2023-08-29T22:27:58.307Z,69.69
2023-08-29T22:30:20.123Z,69.84
2023-08-29T22:32:43.738Z,69.88
2023-08-29T22:35:06.389Z,69.85
2023-08-29T22:37:28.169Z,69.64
2023-08-29T22:39:50.613Z,69.74
2023-08-29T22:42:12.324Z,69.89
2023-08-29T22:44:34.472Z,70.00
2023-08-29T22:46:56.443Z,69.65
2023-08-29T22:49:18.840Z,69.49
2023-08-29T22:51:40.527Z,69.74
2023-08-29T22:54:02.394Z,69.73
2023-08-29T22:56:25.700Z,69.97
2023-08-29T22:58:47.491Z,69.73
2023-08-29T23:01:09.293Z,69.68
2023-08-29T23:03:31.176Z,69.79
2023-08-29T23:05:52.934Z,69.98
2023-08-29T23:08:14.958Z,69.88
2023-08-29T23:10:37.952Z,69.79
2023-08-29T23:12:59.660Z,69.80
2023-08-29T23:15:21.321Z,69.86
2023-08-29T23:17:43.366Z,69.68
2023-08-29T23:20:09.015Z,69.82
2023-08-29T23:22:30.831Z,69.63
2023-08-29T23:24:52.445Z,69.84
2023-08-29T23:27:14.257Z,69.71
2023-08-29T23:29:38.854Z,69.80
2023-08-29T23:32:00.416Z,69.47
2023-08-29T23:34:22.178Z,69.72
2023-08-29T23:36:44.235Z,69.55
2023-08-29T23:39:08.216Z,69.71
2023-08-29T23:41:30.383Z,69.76
2023-08-29T23:43:52.289Z,69.76
2023-08-29T23:46:14.264Z,69.52
2023-08-29T23:48:36.049Z,69.52
2023-08-29T23:50:57.815Z,69.83
2023-08-29T23:53:19.571Z,69.80
2023-08-29T23:55:41.360Z,69.66
2023-08-29T23:58:03.228Z,69.82
